KBOW/BOW METAR and TAF weather

Enter ICAO airport designator
Station Type Date Time Source
KBOW METAR 2019/06/26 20:53 UTC NOAA

KBOW 262053Z 02010KT 10SM SCT045 36/20 A3004


Station Type Date Time Source
KBOW Decoded METAR 2019/06/26 20:53 UTC NOAA

Bartow Municipal, FL, United States (KBOW) 27-57N 081-47W
Jun 26, 2019 - 04:53 PM EDT / 2019.06.26 2053 UTC
Wind: from the NNE (020 degrees) at 12 MPH (10 KT):0
Visibility: 10 mile(s):0
Sky conditions: partly cloudy
Temperature: 96 F (36 C)
Heat index: 100.2 F (37.9 C):1
Dew Point: 68 F (20 C)
Relative Humidity: 39%
Pressure (altimeter): 30.04 in. Hg (1017 hPa)
ob: KBOW 262053Z 02010KT 10SM SCT045 36/20 A3004
cycle: 21

Station Type Date Time Source
KBOW TAF UTC NOAA

Error!

Example: see airport list